Time;durP1;ratioP1;P1;durP2;ratioP2;P2;SDS_P1;SDS_P2;PMS_P1;PMS_P2;Temp;Humidity;BMP_temperature;BMP_pressure;BME280_temperature;BME280_humidity;BME280_pressure;Samples;Min_cycle;Max_cycle;Signal;HPM_P1;HPM_P2
2022/03/27 00:00:28;;;;;;;6.97;6.23;;;8.80;99.90;;;;;;5012317;28;20099;-52
2022/03/27 00:02:54;;;;;;;6.97;6.00;;;8.70;99.90;;;;;;5008784;28;20045;-53
2022/03/27 00:05:19;;;;;;;9.13;6.50;;;8.70;99.90;;;;;;5010923;28;20042;-55
2022/03/27 00:07:45;;;;;;;5.93;5.27;;;8.60;99.90;;;;;;5008421;28;20030;-54
2022/03/27 00:10:10;;;;;;;6.47;5.70;;;8.60;99.90;;;;;;5012783;28;20065;-55
2022/03/27 00:12:36;;;;;;;6.47;5.73;;;8.50;99.90;;;;;;5010176;28;20041;-55
2022/03/27 00:15:04;;;;;;;7.25;6.10;;;8.40;99.90;;;;;;5009052;28;20125;-55
2022/03/27 00:17:32;;;;;;;6.70;5.30;;;8.40;99.90;;;;;;5004243;28;20046;-54
2022/03/27 00:19:59;;;;;;;7.18;6.32;;;8.40;99.90;;;;;;5010509;28;20049;-54
2022/03/27 00:22:26;;;;;;;8.25;6.15;;;8.30;99.90;;;;;;5002468;28;20408;-53
2022/03/27 00:24:51;;;;;;;8.73;5.65;;;8.20;99.90;;;;;;5011826;28;20042;-51
2022/03/27 00:27:17;;;;;;;8.33;7.10;;;8.20;99.90;;;;;;5010743;28;20109;-54
2022/03/27 00:29:42;;;;;;;8.97;7.83;;;8.10;99.90;;;;;;5011354;28;20042;-51
2022/03/27 00:32:08;;;;;;;8.82;6.78;;;8.10;99.90;;;;;;5000186;28;20113;-52
2022/03/27 00:34:33;;;;;;;9.77;7.60;;;8.10;99.90;;;;;;5005499;28;20089;-51
2022/03/27 00:36:59;;;;;;;7.93;6.67;;;8.00;99.90;;;;;;5008403;28;20096;-54
2022/03/27 00:39:25;;;;;;;7.20;6.50;;;8.00;99.90;;;;;;4999984;28;20047;-51
2022/03/27 00:41:51;;;;;;;10.23;6.30;;;7.90;99.90;;;;;;5010164;28;20373;-51
2022/03/27 00:44:18;;;;;;;11.15;8.48;;;7.90;99.90;;;;;;5001515;28;20562;-52
2022/03/27 00:46:43;;;;;;;7.30;6.10;;;7.90;99.90;;;;;;5001232;28;20053;-51
2022/03/27 00:49:09;;;;;;;11.20;7.45;;;7.90;99.90;;;;;;5012091;28;20476;-50
2022/03/27 00:51:35;;;;;;;9.23;7.57;;;7.80;99.90;;;;;;4997775;28;20496;-54
2022/03/27 00:54:02;;;;;;;7.22;6.50;;;7.80;99.90;;;;;;4992047;28;20050;-52
2022/03/27 00:56:27;;;;;;;7.28;6.55;;;7.70;99.90;;;;;;4991572;28;20042;-54
2022/03/27 00:58:53;;;;;;;8.13;6.10;;;7.70;99.90;;;;;;4991572;28;20503;-51
2022/03/27 01:01:37;;;;;;;11.47;7.40;;;7.70;99.90;;;;;;4993154;28;20229;-51
2022/03/27 01:04:04;;;;;;;8.93;6.85;;;7.60;99.90;;;;;;4992013;28;20038;-52
2022/03/27 01:06:44;;;;;;;10.38;6.97;;;7.60;99.90;;;;;;5002396;28;20037;-54
2022/03/27 01:12:27;;;;;;;10.15;7.53;;;7.50;99.90;;;;;;4996289;28;20055;-54
2022/03/27 01:14:53;;;;;;;11.70;8.30;;;7.50;99.90;;;;;;4999222;28;20057;-53
2022/03/27 01:17:27;;;;;;;9.52;8.48;;;7.40;99.90;;;;;;5011491;28;20056;-54
2022/03/27 01:19:54;;;;;;;10.35;8.23;;;7.40;99.90;;;;;;5003625;28;20680;-53
2022/03/27 01:22:21;;;;;;;11.52;8.88;;;7.40;99.90;;;;;;4994144;28;20038;-53
2022/03/27 01:24:48;;;;;;;11.73;8.65;;;7.30;99.90;;;;;;5011081;28;20121;-54
2022/03/27 01:27:13;;;;;;;9.15;8.25;;;7.30;99.90;;;;;;5010487;28;20042;-54
2022/03/27 01:29:40;;;;;;;13.50;9.52;;;7.20;99.90;;;;;;4991408;28;20125;-53
2022/03/27 01:32:08;;;;;;;14.40;10.25;;;7.20;99.90;;;;;;5001236;28;20030;-54
2022/03/27 01:34:34;;;;;;;11.82;9.05;;;7.20;99.90;;;;;;4995842;28;20324;-53
2022/03/27 01:37:17;;;;;;;13.70;9.43;;;7.20;99.90;;;;;;5009862;28;20399;-52
2022/03/27 01:39:44;;;;;;;13.52;10.48;;;7.20;99.90;;;;;;4999611;28;20046;-51
2022/03/27 01:42:09;;;;;;;;;;;7.10;99.90;;;;;;4992842;28;20045;-54
2022/03/27 01:44:35;;;;;;;10.73;9.60;;;7.10;99.90;;;;;;4992111;28;19918;-52
2022/03/27 01:47:01;;;;;;;13.38;10.35;;;7.10;99.90;;;;;;4993514;28;20034;-54
2022/03/27 01:49:27;;;;;;;13.60;9.32;;;7.00;99.90;;;;;;5010486;28;20046;-52
2022/03/27 01:51:53;;;;;;;14.10;9.93;;;7.00;99.90;;;;;;5008629;28;20044;-53
2022/03/27 01:54:19;;;;;;;12.27;9.43;;;7.00;99.90;;;;;;4991315;28;20100;-54
2022/03/27 01:56:45;;;;;;;12.65;9.50;;;7.00;99.90;;;;;;4990841;28;20039;-54
2022/03/27 01:59:13;;;;;;;9.98;8.75;;;7.00;99.90;;;;;;5010341;28;20077;-54
2022/03/27 02:01:39;;;;;;;13.00;9.73;;;6.90;99.90;;;;;;5010139;28;20476;-53
2022/03/27 02:04:05;;;;;;;11.90;9.40;;;6.90;99.90;;;;;;5008494;28;20053;-54
2022/03/27 02:06:32;;;;;;;14.43;10.77;;;6.80;99.90;;;;;;5009710;28;20041;-54
2022/03/27 02:08:59;;;;;;;15.55;11.90;;;6.80;99.90;;;;;;4993325;28;20046;-54
2022/03/27 02:11:25;;;;;;;15.85;10.77;;;6.80;99.90;;;;;;4990910;28;20050;-54
2022/03/27 02:13:51;;;;;;;15.48;11.57;;;6.80;99.90;;;;;;4991784;28;20042;-54
2022/03/27 02:16:17;;;;;;;17.80;11.55;;;6.80;99.90;;;;;;4990670;28;20133;-54
2022/03/27 02:18:42;;;;;;;14.52;10.90;;;6.70;99.90;;;;;;5006810;28;20038;-50
2022/03/27 02:21:09;;;;;;;15.40;10.03;;;6.60;99.90;;;;;;5009151;28;20038;-53
2022/03/27 02:23:34;;;;;;;13.23;10.43;;;6.60;99.90;;;;;;5009007;28;20554;-53
2022/03/27 02:26:00;;;;;;;13.50;9.63;;;6.50;99.90;;;;;;5009928;28;20041;-52
2022/03/27 02:28:26;;;;;;;14.60;11.87;;;6.50;99.90;;;;;;4997087;28;20045;-53
2022/03/27 02:30:52;;;;;;;15.18;11.70;;;6.50;99.90;;;;;;4990920;28;20066;-54
2022/03/27 02:33:18;;;;;;;15.02;11.32;;;6.40;99.90;;;;;;4991971;28;20145;-54
2022/03/27 02:35:43;;;;;;;17.55;12.00;;;6.30;99.90;;;;;;4990499;28;20117;-52
2022/03/27 02:38:10;;;;;;;19.65;11.80;;;6.30;99.90;;;;;;5003542;28;20053;-50
2022/03/27 02:40:38;;;;;;;18.93;12.73;;;6.30;99.90;;;;;;5010385;28;20060;-54
2022/03/27 02:43:04;;;;;;;20.20;14.27;;;6.20;99.90;;;;;;5007949;28;20642;-49
2022/03/27 02:45:30;;;;;;;17.63;12.23;;;6.20;99.90;;;;;;5010121;28;20034;-49
2022/03/27 02:47:56;;;;;;;16.77;11.45;;;6.20;99.90;;;;;;4999681;28;20057;-51
2022/03/27 02:50:22;;;;;;;22.83;14.38;;;6.10;99.90;;;;;;4990398;28;20512;-52
2022/03/27 02:52:48;;;;;;;21.45;13.73;;;6.10;99.90;;;;;;4991343;28;20043;-49
2022/03/27 02:55:14;;;;;;;20.98;13.73;;;6.10;99.90;;;;;;4990172;28;20055;-50
2022/03/27 02:57:39;;;;;;;20.57;14.37;;;6.10;99.90;;;;;;4992062;28;20081;-52
2022/03/27 03:00:08;;;;;;;24.95;15.75;;;6.00;99.90;;;;;;4994243;28;20355;-52
2022/03/27 03:02:34;;;;;;;25.50;14.65;;;6.00;99.90;;;;;;4995032;28;20046;-52
2022/03/27 03:04:59;;;;;;;24.92;14.77;;;6.00;99.90;;;;;;4993892;28;20122;-51
2022/03/27 03:07:26;;;;;;;23.88;15.57;;;6.00;99.90;;;;;;4999501;28;20042;-52
2022/03/27 03:09:52;;;;;;;25.33;16.02;;;6.00;99.90;;;;;;5013827;28;20045;-53
2022/03/27 03:12:18;;;;;;;25.80;15.43;;;6.00;99.90;;;;;;5011630;28;20046;-53
2022/03/27 03:14:44;;;;;;;26.40;15.63;;;6.00;99.90;;;;;;5013581;28;20038;-51
2022/03/27 03:17:10;;;;;;;25.55;16.00;;;6.00;99.90;;;;;;5007351;28;20039;-52
2022/03/27 03:19:36;;;;;;;22.83;13.63;;;6.00;99.90;;;;;;4993799;28;20184;-51
2022/03/27 03:22:02;;;;;;;21.45;13.60;;;5.90;99.90;;;;;;4994783;28;20450;-54
2022/03/27 03:24:27;;;;;;;25.67;15.70;;;5.80;99.90;;;;;;4993703;28;20109;-49
2022/03/27 03:26:54;;;;;;;24.50;15.37;;;5.70;99.90;;;;;;4994830;28;20042;-51
2022/03/27 03:29:21;;;;;;;26.88;16.83;;;5.70;99.90;;;;;;5013013;28;20046;-51
2022/03/27 03:31:47;;;;;;;24.38;14.15;;;5.70;99.90;;;;;;5012466;28;20049;-53
2022/03/27 03:34:13;;;;;;;26.67;16.90;;;5.70;99.90;;;;;;5012168;28;20053;-50
2022/03/27 03:36:38;;;;;;;23.30;15.75;;;5.70;99.90;;;;;;5012418;28;20037;-49
2022/03/27 03:39:04;;;;;;;31.77;16.57;;;5.70;99.90;;;;;;5011844;28;20052;-53
2022/03/27 03:41:30;;;;;;;25.17;15.63;;;5.80;99.90;;;;;;5012667;28;20038;-51
2022/03/27 03:43:55;;;;;;;25.90;16.03;;;5.80;99.90;;;;;;4996263;28;20500;-53
2022/03/27 03:46:21;;;;;;;31.60;15.90;;;5.80;99.90;;;;;;5001305;28;20379;-51
2022/03/27 03:48:46;;;;;;;24.83;15.10;;;5.80;99.90;;;;;;5013178;28;20041;-50
2022/03/27 03:51:12;;;;;;;26.07;15.00;;;5.80;99.90;;;;;;5005850;28;20522;-50
2022/03/27 03:53:38;;;;;;;22.30;14.67;;;5.80;99.90;;;;;;4994436;28;20046;-54
2022/03/27 03:56:05;;;;;;;27.40;15.73;;;5.90;99.90;;;;;;4997093;28;20073;-52
2022/03/27 03:58:31;;;;;;;25.33;15.85;;;5.80;99.90;;;;;;5012983;28;20041;-50
2022/03/27 04:00:56;;;;;;;25.55;14.75;;;5.80;99.90;;;;;;5009295;28;20416;-50
2022/03/27 04:03:22;;;;;;;29.13;15.20;;;5.80;99.90;;;;;;4994434;28;20042;-52
2022/03/27 04:05:47;;;;;;;22.93;13.93;;;5.90;99.90;;;;;;4994034;28;20034;-53
2022/03/27 04:08:14;;;;;;;24.83;14.23;;;5.90;99.90;;;;;;4992751;28;20035;-52
2022/03/27 04:10:41;;;;;;;22.73;14.55;;;5.90;99.90;;;;;;4992862;28;20472;-53
2022/03/27 04:13:07;;;;;;;22.55;14.30;;;5.90;99.90;;;;;;4998837;28;20034;-53
2022/03/27 04:15:33;;;;;;;29.13;15.37;;;5.80;99.90;;;;;;5009726;28;20373;-54
2022/03/27 04:18:00;;;;;;;22.15;13.60;;;5.80;99.90;;;;;;4991497;28;20105;-51
2022/03/27 04:20:26;;;;;;;23.17;13.95;;;5.80;99.90;;;;;;4993940;28;20054;-54
2022/03/27 04:22:51;;;;;;;25.23;13.35;;;5.70;99.90;;;;;;5010417;28;20114;-52
2022/03/27 04:25:17;;;;;;;22.73;13.83;;;5.80;99.90;;;;;;5011530;28;20044;-50
2022/03/27 04:27:43;;;;;;;27.60;15.67;;;5.70;99.90;;;;;;4992889;28;20042;-54
2022/03/27 04:30:10;;;;;;;26.40;15.23;;;5.70;99.90;;;;;;4992920;28;20074;-54
2022/03/27 04:32:38;;;;;;;21.92;14.60;;;5.70;99.90;;;;;;5008977;28;20053;-54
2022/03/27 04:35:05;;;;;;;22.73;14.27;;;5.70;99.90;;;;;;5010128;28;20092;-52
2022/03/27 04:37:31;;;;;;;28.67;14.40;;;5.70;99.90;;;;;;5011620;28;20662;-54
2022/03/27 04:40:03;;;;;;;20.87;14.23;;;5.70;99.90;;;;;;4996488;28;20504;-54
2022/03/27 04:42:29;;;;;;;21.30;12.18;;;5.70;99.90;;;;;;5001595;28;20065;-53
2022/03/27 04:44:55;;;;;;;21.70;12.93;;;5.70;99.90;;;;;;5010174;28;20034;-54
2022/03/27 04:47:21;;;;;;;20.30;12.43;;;5.60;99.90;;;;;;5011937;28;20124;-54
2022/03/27 04:49:47;;;;;;;20.33;12.80;;;5.60;99.90;;;;;;5005240;28;20038;-52
2022/03/27 04:52:13;;;;;;;28.42;14.07;;;5.60;99.90;;;;;;4992213;28;20104;-54
2022/03/27 04:54:39;;;;;;;21.00;11.00;;;5.50;99.90;;;;;;5001077;28;20042;-50
2022/03/27 04:57:05;;;;;;;21.95;12.45;;;5.50;99.90;;;;;;5011755;28;20273;-54
2022/03/27 04:59:31;;;;;;;20.33;11.02;;;5.50;99.90;;;;;;5007075;28;20049;-51
2022/03/27 05:01:58;;;;;;;15.67;9.07;;;5.50;99.90;;;;;;4992158;28;20042;-50
2022/03/27 05:04:24;;;;;;;15.82;10.30;;;5.40;99.90;;;;;;4991347;28;20054;-53
2022/03/27 05:06:49;;;;;;;17.48;10.98;;;5.30;99.90;;;;;;4991208;28;20042;-54
2022/03/27 05:09:15;;;;;;;18.73;9.37;;;5.20;99.90;;;;;;4998825;28;20078;-53
2022/03/27 05:11:40;;;;;;;21.97;11.70;;;5.10;99.90;;;;;;5011680;28;20077;-53
2022/03/27 05:14:08;;;;;;;17.40;9.73;;;5.10;99.90;;;;;;5009906;28;20061;-53
2022/03/27 05:16:33;;;;;;;16.52;10.05;;;5.00;99.90;;;;;;5011019;28;20411;-52
2022/03/27 05:18:59;;;;;;;21.67;10.40;;;5.00;99.90;;;;;;5007390;28;20034;-50
2022/03/27 05:21:25;;;;;;;17.23;9.80;;;5.00;99.90;;;;;;4997710;28;20107;-54
2022/03/27 05:23:51;;;;;;;17.17;10.82;;;5.00;99.90;;;;;;5008220;28;20038;-53
2022/03/27 05:26:17;;;;;;;22.05;11.00;;;5.00;99.90;;;;;;4991506;28;20034;-53
2022/03/27 05:28:43;;;;;;;16.70;11.00;;;5.00;99.90;;;;;;4992714;28;20046;-52
2022/03/27 05:31:09;;;;;;;17.38;9.82;;;5.10;99.90;;;;;;5009684;28;20575;-53
2022/03/27 05:33:38;;;;;;;16.05;9.63;;;5.10;99.90;;;;;;5011063;28;20037;-51
2022/03/27 05:36:07;;;;;;;15.05;9.15;;;5.00;99.90;;;;;;5008825;28;20042;-50
2022/03/27 05:38:33;;;;;;;16.33;10.68;;;4.90;99.90;;;;;;5011137;28;20439;-54
2022/03/27 05:40:59;;;;;;;14.75;8.95;;;4.90;99.90;;;;;;5010249;28;20050;-50
2022/03/27 05:43:25;;;;;;;20.55;10.35;;;4.90;99.90;;;;;;5011001;28;20525;-51
2022/03/27 05:45:51;;;;;;;19.23;9.90;;;4.90;99.90;;;;;;4993767;28;20121;-49
2022/03/27 05:48:16;;;;;;;16.10;9.80;;;4.90;99.90;;;;;;4995775;28;20373;-51
2022/03/27 05:50:42;;;;;;;15.73;10.33;;;5.00;99.90;;;;;;4991403;28;20061;-53
2022/03/27 05:53:07;;;;;;;13.90;8.77;;;5.10;99.90;;;;;;5000455;28;20042;-53
2022/03/27 05:55:33;;;;;;;14.13;8.57;;;5.10;99.90;;;;;;5009157;28;20088;-54
2022/03/27 05:57:59;;;;;;;13.77;8.50;;;5.10;99.90;;;;;;5010879;28;20092;-51
2022/03/27 06:00:26;;;;;;;13.52;9.15;;;5.10;99.90;;;;;;5004345;28;20117;-50
2022/03/27 06:02:52;;;;;;;14.13;8.13;;;5.20;99.90;;;;;;4991465;28;20506;-52
2022/03/27 06:05:22;;;;;;;14.85;8.95;;;5.20;99.90;;;;;;5000893;28;20500;-53
2022/03/27 06:07:53;;;;;;;20.92;10.27;;;5.30;99.90;;;;;;4991096;28;20038;-52
2022/03/27 06:10:25;;;;;;;13.98;8.93;;;5.30;99.90;;;;;;5005156;28;20041;-49
2022/03/27 06:12:52;;;;;;;13.55;9.05;;;5.30;99.90;;;;;;5010501;28;20125;-53
2022/03/27 06:15:17;;;;;;;;;;;5.40;99.90;;;;;;4997422;28;20045;-54
2022/03/27 06:17:45;;;;;;;16.63;9.70;;;5.40;99.90;;;;;;4990332;28;19918;-53
2022/03/27 06:20:14;;;;;;;12.77;8.38;;;5.40;99.90;;;;;;4991004;28;20046;-51
2022/03/27 06:22:40;;;;;;;18.73;9.35;;;5.50;99.90;;;;;;4998821;28;20356;-52
2022/03/27 06:25:09;;;;;;;23.33;11.18;;;5.50;99.90;;;;;;5009944;28;20657;-54
2022/03/27 06:27:35;;;;;;;23.20;10.27;;;5.60;99.90;;;;;;4995384;28;20065;-52
2022/03/27 06:30:00;;;;;;;32.05;11.43;;;5.70;99.90;;;;;;4990408;28;20042;-53
2022/03/27 06:32:26;;;;;;;29.23;10.33;;;5.80;99.90;;;;;;5004142;28;20042;-53
2022/03/27 06:34:58;;;;;;;29.07;10.70;;;5.80;99.90;;;;;;5014026;28;20049;-52
2022/03/27 06:37:26;;;;;;;36.85;10.18;;;5.90;99.90;;;;;;5012682;28;20061;-54
2022/03/27 06:39:51;;;;;;;39.33;12.13;;;6.00;99.90;;;;;;5010799;28;20034;-54
2022/03/27 06:42:17;;;;;;;38.07;10.80;;;6.10;99.90;;;;;;5014115;28;20048;-52
2022/03/27 06:44:42;;;;;;;32.90;8.67;;;6.20;99.90;;;;;;5001699;28;20281;-52
2022/03/27 06:47:08;;;;;;;34.30;9.70;;;6.20;99.90;;;;;;4998792;28;20054;-53
2022/03/27 06:49:34;;;;;;;47.42;12.05;;;6.30;99.90;;;;;;5013805;28;20046;-53
2022/03/27 06:52:00;;;;;;;34.23;10.57;;;6.30;99.90;;;;;;4994289;28;20435;-54
2022/03/27 06:54:26;;;;;;;35.95;10.07;;;6.40;99.90;;;;;;4994783;28;20042;-53
2022/03/27 06:56:51;;;;;;;40.27;12.47;;;6.50;99.90;;;;;;5010096;28;20026;-53
2022/03/27 06:59:17;;;;;;;26.73;9.33;;;6.50;99.90;;;;;;5000083;28;20038;-54
2022/03/27 07:04:27;;;;;;;32.88;10.20;;;6.70;99.90;;;;;;5007329;28;20042;-54
2022/03/27 07:06:52;;;;;;;37.10;11.53;;;6.70;99.90;;;;;;4995998;28;20121;-53
2022/03/27 07:09:18;;;;;;;32.20;11.00;;;6.80;99.90;;;;;;5003981;28;20050;-52
2022/03/27 07:11:46;;;;;;;43.92;13.40;;;6.80;99.90;;;;;;4999723;28;20038;-51
2022/03/27 07:14:12;;;;;;;37.55;11.02;;;6.90;99.90;;;;;;5001974;28;20109;-50
2022/03/27 07:16:39;;;;;;;37.25;13.43;;;6.90;99.90;;;;;;4993882;28;20053;-52
2022/03/27 07:19:05;;;;;;;47.75;14.70;;;6.90;99.90;;;;;;5011554;28;20089;-50
2022/03/27 07:21:30;;;;;;;37.30;13.73;;;7.00;99.90;;;;;;5013558;28;20037;-53
2022/03/27 07:23:58;;;;;;;34.33;11.30;;;7.00;99.90;;;;;;5013171;28;20050;-52
2022/03/27 07:26:24;;;;;;;38.22;13.27;;;7.00;99.90;;;;;;5013254;28;20037;-52
2022/03/27 07:28:50;;;;;;;26.95;12.82;;;7.10;99.90;;;;;;5011761;28;20052;-51
2022/03/27 07:31:15;;;;;;;42.28;13.90;;;7.20;99.90;;;;;;5013675;28;20137;-51
2022/03/27 07:33:42;;;;;;;34.30;14.38;;;7.20;99.90;;;;;;4999893;28;20523;-50
2022/03/27 07:36:07;;;;;;;;;;;7.30;99.90;;;;;;4997063;28;20041;-51
2022/03/27 07:38:33;;;;;;;39.05;12.57;;;7.30;99.90;;;;;;4998353;28;19922;-52
2022/03/27 07:40:59;;;;;;;40.92;13.98;;;7.40;99.90;;;;;;4994683;28;20046;-51
2022/03/27 07:43:25;;;;;;;33.42;15.07;;;7.40;99.90;;;;;;5012963;28;20466;-49
2022/03/27 07:45:51;;;;;;;42.63;15.77;;;7.50;99.90;;;;;;5012128;28;20034;-53
2022/03/27 07:48:17;;;;;;;34.55;14.88;;;7.50;99.90;;;;;;4994377;28;20038;-53
2022/03/27 07:50:44;;;;;;;42.23;15.87;;;7.50;99.90;;;;;;4992829;28;20389;-51
2022/03/27 07:53:09;;;;;;;36.78;14.77;;;7.60;99.90;;;;;;5011395;28;20511;-50
2022/03/27 07:55:37;;;;;;;35.15;15.27;;;7.60;99.90;;;;;;5012353;28;20038;-51
2022/03/27 07:58:03;;;;;;;41.95;14.65;;;7.70;99.90;;;;;;5009679;28;20038;-50
2022/03/27 08:00:29;;;;;;;38.95;15.60;;;7.80;99.90;;;;;;4993794;28;20050;-50
2022/03/27 08:02:55;;;;;;;;;;;7.90;99.90;;;;;;5008429;28;20048;-54
2022/03/27 08:05:24;;;;;;;40.10;14.65;;;7.90;99.90;;;;;;5010175;28;19917;-53
2022/03/27 08:07:50;;;;;;;43.10;14.00;;;8.00;99.90;;;;;;5012346;28;20073;-53
2022/03/27 08:10:16;;;;;;;39.28;12.02;;;8.10;99.90;;;;;;4995396;28;20050;-51
2022/03/27 08:12:43;;;;;;;35.77;13.83;;;8.30;99.90;;;;;;5006786;28;20077;-54
2022/03/27 08:15:09;;;;;;;36.38;11.30;;;8.50;99.90;;;;;;5010983;28;20042;-52
2022/03/27 08:17:35;;;;;;;33.33;10.80;;;8.80;99.90;;;;;;5000287;28;20045;-49
2022/03/27 08:20:02;;;;;;;40.65;12.13;;;9.00;99.90;;;;;;4993663;28;20492;-50
2022/03/27 08:22:27;;;;;;;63.65;10.18;;;9.20;99.90;;;;;;4992677;28;20101;-51
2022/03/27 08:24:53;;;;;;;35.73;9.50;;;9.30;99.90;;;;;;5001343;28;20045;-50
2022/03/27 08:27:20;;;;;;;38.00;9.52;;;9.50;99.90;;;;;;5012599;28;20275;-53
2022/03/27 08:29:46;;;;;;;41.83;8.57;;;9.70;99.90;;;;;;5010627;28;20038;-52
2022/03/27 08:32:12;;;;;;;;;;;9.80;99.90;;;;;;5012856;28;20041;-52
2022/03/27 08:34:41;;;;;;;37.33;8.65;;;9.90;99.90;;;;;;5005890;28;19917;-52
2022/03/27 08:37:08;;;;;;;31.58;8.00;;;9.90;99.90;;;;;;4992349;28;20046;-53
2022/03/27 08:39:35;;;;;;;30.50;7.20;;;10.00;99.90;;;;;;4996837;28;20041;-53
2022/03/27 08:42:01;;;;;;;40.72;8.80;;;10.10;99.90;;;;;;5011780;28;20041;-53
2022/03/27 08:44:28;;;;;;;40.88;10.27;;;10.20;99.90;;;;;;5009700;28;20530;-52
2022/03/27 08:46:56;;;;;;;53.83;9.75;;;10.40;99.90;;;;;;4995884;28;20125;-53
2022/03/27 08:49:40;;;;;;;45.83;10.27;;;10.50;99.90;;;;;;5006004;28;20454;-54
2022/03/27 08:52:19;;;;;;;39.80;10.77;;;10.70;99.90;;;;;;5008099;28;20050;-54
2022/03/27 08:55:02;;;;;;;40.03;10.07;;;10.90;99.90;;;;;;5010047;28;20153;-53
2022/03/27 08:57:52;;;;;;;39.92;10.43;;;11.10;99.90;;;;;;5010716;28;20046;-54
2022/03/27 09:00:22;;;;;;;42.28;9.88;;;11.30;99.90;;;;;;5003347;28;20156;-55
2022/03/27 09:02:48;;;;;;;41.20;10.18;;;11.40;99.90;;;;;;5008792;28;20337;-51
2022/03/27 09:05:14;;;;;;;32.80;7.90;;;11.60;99.90;;;;;;4991738;28;20049;-54
2022/03/27 09:07:39;;;;;;;43.17;9.40;;;11.60;99.90;;;;;;5008603;28;20662;-54
2022/03/27 09:10:08;;;;;;;32.33;8.43;;;11.70;99.90;;;;;;5007441;28;20033;-54
2022/03/27 09:12:35;;;;;;;32.78;10.40;;;11.60;99.80;;;;;;5011717;28;20048;-54
2022/03/27 09:15:02;;;;;;;34.22;8.77;;;11.50;99.40;;;;;;5004060;28;20081;-54
2022/03/27 09:17:27;;;;;;;37.00;9.02;;;11.50;99.60;;;;;;4991865;28;20046;-54
2022/03/27 09:19:53;;;;;;;34.57;9.60;;;11.40;99.00;;;;;;5008978;28;20485;-54
2022/03/27 09:22:21;;;;;;;32.27;7.90;;;11.40;99.30;;;;;;5011079;28;20065;-54
2022/03/27 09:25:01;;;;;;;35.10;7.75;;;11.40;99.50;;;;;;4993313;28;20109;-50
2022/03/27 09:27:37;;;;;;;38.38;8.07;;;11.50;99.40;;;;;;5004395;28;20479;-48
2022/03/27 09:30:07;;;;;;;41.28;10.68;;;11.60;98.90;;;;;;5009523;28;20053;-52
2022/03/27 09:32:36;;;;;;;36.35;7.95;;;11.60;98.80;;;;;;4991678;28;20042;-50
2022/03/27 09:35:13;;;;;;;38.70;10.10;;;11.70;99.20;;;;;;4991416;28;20042;-50
2022/03/27 09:37:46;;;;;;;34.70;9.65;;;11.80;98.90;;;;;;5011035;28;20076;-50
2022/03/27 09:40:13;;;;;;;29.77;8.38;;;11.90;99.10;;;;;;5003504;28;20528;-50
2022/03/27 09:42:40;;;;;;;43.78;9.43;;;12.00;98.80;;;;;;4991464;28;20097;-49
2022/03/27 09:45:25;;;;;;;32.58;7.57;;;12.10;98.50;;;;;;5000519;28;20381;-49
2022/03/27 09:47:53;;;;;;;36.90;8.63;;;12.20;98.10;;;;;;5010843;28;20099;-50
2022/03/27 09:50:30;;;;;;;36.60;6.97;;;12.20;97.80;;;;;;4999082;28;20492;-52
2022/03/27 09:53:35;;;;;;;34.97;7.18;;;12.30;97.40;;;;;;4991406;28;20126;-50
2022/03/27 09:56:01;;;;;;;35.03;7.75;;;12.30;97.30;;;;;;4964739;28;20047;-50
2022/03/27 09:59:00;;;;;;;35.23;6.93;;;12.40;97.20;;;;;;4968779;28;20042;-53
2022/03/27 10:01:26;;;;;;;26.38;6.78;;;12.50;96.80;;;;;;4917200;28;20054;-50
2022/03/27 10:04:13;;;;;;;34.50;8.93;;;12.50;96.90;;;;;;4969425;28;20043;-51
2022/03/27 10:06:40;;;;;;;30.13;7.73;;;12.60;96.90;;;;;;4969004;28;20607;-52
2022/03/27 10:09:08;;;;;;;29.77;7.97;;;12.70;96.50;;;;;;4968927;28;20053;-49
2022/03/27 10:11:34;;;;;;;36.55;7.38;;;12.70;96.20;;;;;;4969495;28;20121;-50
2022/03/27 10:14:01;;;;;;;25.73;7.70;;;12.80;96.40;;;;;;4968757;28;20129;-50
2022/03/27 10:16:34;;;;;;;33.45;7.35;;;12.80;96.00;;;;;;4968632;28;20050;-50
2022/03/27 10:19:04;;;;;;;34.22;8.77;;;12.80;96.30;;;;;;4966916;28;20045;-54
2022/03/27 10:21:31;;;;;;;30.60;6.97;;;12.90;95.80;;;;;;4950876;28;20039;-53
2022/03/27 10:24:10;;;;;;;34.05;7.55;;;12.90;95.50;;;;;;4963706;28;20045;-50
2022/03/27 10:26:38;;;;;;;27.52;6.38;;;12.90;96.00;;;;;;4979050;28;20108;-52
2022/03/27 10:29:06;;;;;;;32.47;7.75;;;13.00;95.80;;;;;;4986066;28;20197;-50
2022/03/27 10:31:32;;;;;;;26.00;6.97;;;13.10;95.70;;;;;;4987701;28;20034;-54
2022/03/27 10:34:00;;;;;;;32.60;7.30;;;13.10;95.50;;;;;;4994755;28;20341;-54
2022/03/27 10:36:49;;;;;;;28.02;6.82;;;13.30;95.60;;;;;;4991321;28;20117;-54
2022/03/27 10:39:25;;;;;;;35.60;6.97;;;13.40;95.00;;;;;;4996516;28;20163;-52
2022/03/27 10:42:26;;;;;;;31.25;7.35;;;13.50;94.70;;;;;;4996585;28;20042;-51
2022/03/27 10:45:26;;;;;;;32.35;8.18;;;13.50;94.40;;;;;;4995564;28;20034;-54
2022/03/27 10:48:15;;;;;;;29.23;7.70;;;13.60;94.00;;;;;;4995945;28;20074;-53
2022/03/27 10:50:53;;;;;;;25.80;5.70;;;13.70;94.00;;;;;;4994869;28;20088;-55
2022/03/27 10:53:22;;;;;;;37.08;7.88;;;13.80;94.00;;;;;;4987824;28;20484;-54
2022/03/27 10:55:50;;;;;;;33.33;8.10;;;13.90;93.80;;;;;;5007675;28;20038;-55
2022/03/27 10:58:41;;;;;;;27.58;8.25;;;14.00;93.50;;;;;;5008727;28;20034;-51
2022/03/27 11:01:32;;;;;;;31.30;6.75;;;13.90;92.30;;;;;;4992953;28;20104;-51
2022/03/27 11:04:12;;;;;;;31.58;6.47;;;13.90;92.60;;;;;;4990126;28;20450;-54
2022/03/27 11:06:40;;;;;;;32.22;7.25;;;13.90;92.10;;;;;;5003032;28;20041;-55
2022/03/27 11:09:31;;;;;;;26.48;7.85;;;13.90;92.20;;;;;;4999855;28;20030;-55
2022/03/27 11:11:57;;;;;;;26.88;9.10;;;14.00;92.10;;;;;;4996701;28;20069;-55
2022/03/27 11:14:44;;;;;;;32.20;7.63;;;14.20;92.20;;;;;;4995057;28;20116;-54
2022/03/27 11:17:12;;;;;;;37.58;8.80;;;14.30;91.50;;;;;;5008937;28;20041;-53
2022/03/27 11:19:43;;;;;;;35.88;9.20;;;14.20;91.50;;;;;;5007163;28;20416;-54
2022/03/27 11:22:44;;;;;;;31.52;6.80;;;14.20;91.20;;;;;;5004975;28;20184;-55
2022/03/27 11:25:31;;;;;;;31.13;7.35;;;14.10;91.00;;;;;;5004786;28;20049;-55
2022/03/27 11:27:57;;;;;;;40.53;8.82;;;14.20;91.20;;;;;;5011175;28;20037;-53
2022/03/27 11:30:23;;;;;;;28.58;7.35;;;14.20;91.40;;;;;;5002490;28;20047;-55
2022/03/27 11:33:21;;;;;;;21.92;5.63;;;14.30;91.20;;;;;;4994281;28;20365;-55
2022/03/27 11:36:01;;;;;;;20.45;5.10;;;14.30;88.60;;;;;;4998065;28;20514;-55
2022/03/27 11:38:51;;;;;;;23.23;5.40;;;14.30;89.20;;;;;;5005954;28;20050;-52
2022/03/27 11:41:31;;;;;;;22.15;7.03;;;14.50;89.80;;;;;;4996966;28;20527;-52
2022/03/27 11:44:23;;;;;;;37.60;7.05;;;14.50;90.00;;;;;;4993473;28;20045;-50
2022/03/27 11:46:54;;;;;;;28.25;7.22;;;14.60;89.60;;;;;;4993379;28;20046;-52
2022/03/27 11:49:21;;;;;;;28.15;7.47;;;14.60;88.80;;;;;;4994937;28;20050;-51
2022/03/27 11:52:02;;;;;;;30.05;6.47;;;14.60;88.20;;;;;;4995700;28;20046;-51
2022/03/27 11:54:28;;;;;;;30.73;8.20;;;14.50;87.80;;;;;;4993126;28;20038;-53
2022/03/27 11:57:01;;;;;;;28.42;6.97;;;14.50;88.20;;;;;;5004524;28;20048;-52
2022/03/27 11:59:27;;;;;;;28.55;7.97;;;14.50;88.70;;;;;;4994422;28;20034;-53
2022/03/27 12:01:54;;;;;;;;;;;14.50;88.40;;;;;;5005429;28;20042;-52
2022/03/27 12:04:20;;;;;;;31.13;5.30;;;14.70;88.40;;;;;;4999605;28;19975;-52
2022/03/27 12:06:46;;;;;;;24.73;6.50;;;14.80;88.70;;;;;;5007719;28;20030;-52
2022/03/27 12:09:30;;;;;;;26.75;5.80;;;14.90;86.30;;;;;;5010544;28;20049;-52
2022/03/27 12:12:12;;;;;;;24.95;6.25;;;14.90;87.40;;;;;;4996660;28;20045;-51
2022/03/27 12:14:57;;;;;;;27.75;7.32;;;15.00;86.90;;;;;;4999557;28;20113;-51
2022/03/27 12:17:24;;;;;;;28.02;7.47;;;15.10;87.00;;;;;;5001871;28;20046;-54
2022/03/27 12:20:16;;;;;;;20.70;6.75;;;15.30;86.50;;;;;;5003269;28;20392;-52
2022/03/27 12:22:49;;;;;;;29.27;6.90;;;15.40;86.00;;;;;;5010436;28;20053;-51
2022/03/27 12:25:14;;;;;;;31.35;6.72;;;15.50;86.00;;;;;;5002289;28;20249;-51
2022/03/27 12:30:32;;;;;;;28.60;8.32;;;15.40;84.40;;;;;;5002447;28;20053;-52
2022/03/27 12:33:00;;;;;;;31.30;7.95;;;15.50;83.90;;;;;;5011214;28;20049;-52
2022/03/27 12:35:27;;;;;;;23.23;6.35;;;15.50;83.70;;;;;;5008231;28;20038;-52
2022/03/27 12:37:53;;;;;;;36.05;8.27;;;15.50;83.50;;;;;;5010720;28;20280;-52
2022/03/27 12:40:19;;;;;;;24.25;7.50;;;15.70;83.70;;;;;;5000466;28;20403;-51
2022/03/27 12:42:47;;;;;;;34.35;7.32;;;15.70;83.60;;;;;;5004534;28;20121;-51
2022/03/27 12:45:29;;;;;;;26.88;6.80;;;15.70;82.40;;;;;;5003547;28;20125;-56
2022/03/27 12:47:58;;;;;;;20.50;5.75;;;15.80;82.10;;;;;;5004645;28;20038;-55
2022/03/27 12:50:31;;;;;;;28.90;6.47;;;15.80;82.50;;;;;;5011256;28;20052;-54
2022/03/27 12:53:13;;;;;;;27.88;7.55;;;15.90;81.70;;;;;;5008144;28;20038;-52
2022/03/27 12:55:47;;;;;;;31.83;7.07;;;16.00;80.70;;;;;;5005027;28;20050;-52
2022/03/27 12:58:14;;;;;;;26.27;6.63;;;16.10;82.50;;;;;;5010324;28;20041;-54